createdAt,value
2019-03-20T00:00:25.304Z,99.90
2019-03-20T00:02:53.955Z,99.90
2019-03-20T00:05:22.618Z,99.90
2019-03-20T00:07:51.241Z,99.90
2019-03-20T00:10:19.917Z,99.90
2019-03-20T00:12:48.543Z,99.90
2019-03-20T00:15:17.188Z,99.90
2019-03-20T00:17:45.772Z,99.90
2019-03-20T00:20:15.120Z,99.90
2019-03-20T00:22:43.752Z,99.90
2019-03-20T00:25:13.385Z,99.90
2019-03-20T00:27:42.085Z,99.90
2019-03-20T00:30:19.408Z,99.90
2019-03-20T00:32:48.068Z,99.90
2019-03-20T00:35:16.745Z,99.90
2019-03-20T00:37:45.305Z,99.90
2019-03-20T00:40:17.820Z,99.90
2019-03-20T00:42:46.656Z,99.90
2019-03-20T00:45:19.087Z,99.90
2019-03-20T00:47:47.684Z,99.90
2019-03-20T00:50:20.017Z,99.90
2019-03-20T00:52:48.667Z,99.90
2019-03-20T00:55:18.071Z,99.90
2019-03-20T00:57:47.392Z,99.90
2019-03-20T01:00:23.835Z,99.90
2019-03-20T01:02:52.460Z,99.90
2019-03-20T01:05:23.887Z,99.90
2019-03-20T01:07:52.550Z,99.90
2019-03-20T01:10:22.353Z,99.90
2019-03-20T01:12:51.383Z,99.90
2019-03-20T01:15:20.015Z,99.90
2019-03-20T01:17:48.686Z,99.90
2019-03-20T01:20:27.465Z,99.90
2019-03-20T01:22:56.144Z,99.90
2019-03-20T01:25:24.770Z,99.90
2019-03-20T01:27:53.386Z,99.90
2019-03-20T01:30:35.977Z,99.90
2019-03-20T01:33:07.355Z,99.90
2019-03-20T01:35:36.012Z,99.90
2019-03-20T01:38:05.581Z,99.90
2019-03-20T01:40:34.215Z,99.90
2019-03-20T01:43:02.949Z,99.90
2019-03-20T01:45:31.581Z,99.90
2019-03-20T01:48:00.279Z,99.90
2019-03-20T01:50:28.927Z,99.90
2019-03-20T01:52:57.520Z,99.90
2019-03-20T01:55:26.088Z,99.90
2019-03-20T01:57:54.852Z,99.90
2019-03-20T02:00:23.543Z,99.90
2019-03-20T02:02:52.141Z,99.90
2019-03-20T02:05:20.764Z,99.90
2019-03-20T02:07:49.366Z,99.90
2019-03-20T02:10:18.460Z,99.90
2019-03-20T02:12:47.115Z,99.90
2019-03-20T02:15:17.326Z,99.90
2019-03-20T02:17:45.987Z,99.90
2019-03-20T02:20:16.495Z,99.90
2019-03-20T02:22:45.210Z,99.90
2019-03-20T02:25:14.314Z,99.90
2019-03-20T02:27:42.950Z,99.90
2019-03-20T02:30:22.327Z,99.90
2019-03-20T02:32:50.923Z,99.90
2019-03-20T02:35:19.504Z,99.90
2019-03-20T02:37:56.512Z,99.90
2019-03-20T02:44:06.162Z,99.90
2019-03-20T02:46:34.807Z,99.90
2019-03-20T02:49:03.381Z,99.90
2019-03-20T02:51:31.978Z,99.90
2019-03-20T02:54:00.563Z,99.90
2019-03-20T02:56:29.120Z,99.90
2019-03-20T02:58:57.709Z,99.90
2019-03-20T03:01:26.344Z,99.90
2019-03-20T03:03:54.931Z,99.90
2019-03-20T03:06:23.500Z,99.90
2019-03-20T03:08:52.178Z,99.90
2019-03-20T03:11:20.978Z,99.90
2019-03-20T03:13:49.645Z,99.90
2019-03-20T03:16:18.237Z,99.90
2019-03-20T03:18:48.361Z,99.90
2019-03-20T03:21:17.002Z,99.90
2019-03-20T03:23:45.575Z,99.90
2019-03-20T03:26:14.140Z,99.90
2019-03-20T03:28:42.736Z,99.90
2019-03-20T03:31:11.310Z,99.90
2019-03-20T03:33:39.937Z,99.90
2019-03-20T03:36:20.650Z,99.90
2019-03-20T03:38:38.843Z,99.90
2019-03-20T03:41:07.379Z,99.90
2019-03-20T03:43:36.008Z,99.90
2019-03-20T03:46:04.703Z,99.90
2019-03-20T03:48:33.279Z,99.90
2019-03-20T03:54:31.276Z,99.90
2019-03-20T03:56:59.961Z,99.90
2019-03-20T03:59:28.589Z,99.90
2019-03-20T04:01:57.155Z,99.90
2019-03-20T04:04:31.657Z,99.90
2019-03-20T04:07:00.221Z,99.90
2019-03-20T04:09:28.838Z,99.90
2019-03-20T04:11:57.495Z,99.90
2019-03-20T04:14:26.029Z,99.90
2019-03-20T04:16:54.758Z,99.90
2019-03-20T04:19:23.442Z,99.90
2019-03-20T04:21:52.059Z,99.90
2019-03-20T04:24:20.602Z,99.90
2019-03-20T04:26:49.362Z,99.90
2019-03-20T04:29:17.939Z,99.90
2019-03-20T04:31:46.531Z,99.90
2019-03-20T04:34:15.276Z,99.90
2019-03-20T04:36:48.026Z,99.90
2019-03-20T04:39:14.189Z,99.90
2019-03-20T04:41:42.740Z,99.90
2019-03-20T04:44:11.406Z,99.90
2019-03-20T04:46:40.131Z,99.90
2019-03-20T04:49:08.745Z,99.90
2019-03-20T04:51:37.313Z,99.90
2019-03-20T04:54:05.980Z,99.90
2019-03-20T04:56:35.474Z,99.90
2019-03-20T04:59:04.120Z,99.90
2019-03-20T05:01:32.756Z,99.90
2019-03-20T05:04:01.365Z,99.90
2019-03-20T05:06:29.942Z,99.90
2019-03-20T05:08:58.572Z,99.90
2019-03-20T05:11:27.137Z,99.90
2019-03-20T05:13:55.817Z,99.90
2019-03-20T05:16:24.399Z,99.90
2019-03-20T05:18:52.994Z,99.90
2019-03-20T05:21:21.571Z,99.90
2019-03-20T05:23:50.276Z,99.90
2019-03-20T05:26:18.837Z,99.90
2019-03-20T05:28:47.524Z,99.90
2019-03-20T05:31:16.090Z,99.90
2019-03-20T05:33:44.737Z,99.90
2019-03-20T05:36:13.289Z,99.90
2019-03-20T05:38:41.886Z,99.90
2019-03-20T05:41:10.477Z,99.90
2019-03-20T05:43:39.074Z,99.90
2019-03-20T05:46:07.645Z,99.90
2019-03-20T05:48:36.260Z,99.90
2019-03-20T05:51:04.888Z,99.90
2019-03-20T05:53:33.501Z,99.90
2019-03-20T05:56:02.087Z,99.90
2019-03-20T05:58:30.671Z,99.90
2019-03-20T06:00:59.309Z,99.90
2019-03-20T06:03:27.845Z,99.90
2019-03-20T06:05:56.445Z,99.90
2019-03-20T06:08:25.032Z,99.90
2019-03-20T06:10:53.653Z,99.90
2019-03-20T06:13:22.294Z,99.90
2019-03-20T06:15:50.885Z,99.90
2019-03-20T06:18:19.557Z,99.90
2019-03-20T06:20:48.133Z,99.90
2019-03-20T06:23:16.720Z,99.90
2019-03-20T06:25:46.501Z,99.90
2019-03-20T06:28:15.081Z,99.90
2019-03-20T06:30:43.702Z,99.90
2019-03-20T06:33:12.233Z,99.90
2019-03-20T06:35:40.818Z,99.80
2019-03-20T06:38:09.405Z,98.70
2019-03-20T06:40:37.992Z,97.50
2019-03-20T06:43:06.569Z,95.10
2019-03-20T06:45:35.325Z,94.00
2019-03-20T06:48:04.021Z,93.60
2019-03-20T06:50:32.615Z,92.00
2019-03-20T06:53:01.346Z,89.90
2019-03-20T06:55:29.932Z,84.00
2019-03-20T06:57:58.493Z,77.90
2019-03-20T07:00:42.170Z,74.10
2019-03-20T07:03:22.776Z,71.30
2019-03-20T07:06:19.689Z,67.50
2019-03-20T07:09:15.807Z,65.50
2019-03-20T07:14:51.509Z,59.80
2019-03-20T07:17:42.568Z,62.50
2019-03-20T07:20:11.707Z,64.60
2019-03-20T07:22:47.660Z,72.90
2019-03-20T07:25:21.802Z,64.60
2019-03-20T07:27:49.063Z,61.20
2019-03-20T07:30:26.512Z,61.10
2019-03-20T07:36:37.602Z,58.40
2019-03-20T07:39:24.836Z,60.30
2019-03-20T07:41:46.756Z,59.40
2019-03-20T07:44:17.674Z,59.60
2019-03-20T07:46:53.446Z,58.40
2019-03-20T07:49:28.367Z,56.80
2019-03-20T07:52:05.584Z,54.40
2019-03-20T07:54:36.176Z,54.70
2019-03-20T07:57:09.718Z,53.70
2019-03-20T07:59:40.162Z,52.90
2019-03-20T08:02:09.008Z,52.20
2019-03-20T08:04:41.239Z,54.00
2019-03-20T08:07:21.438Z,53.40
2019-03-20T08:10:12.559Z,53.90
2019-03-20T08:12:41.550Z,52.40
2019-03-20T08:15:15.270Z,50.90
2019-03-20T08:17:44.033Z,48.50
2019-03-20T08:20:37.685Z,48.90
2019-03-20T08:23:14.833Z,48.20
2019-03-20T08:25:41.143Z,49.00
2019-03-20T08:28:09.785Z,47.70
2019-03-20T08:30:38.559Z,48.00
2019-03-20T08:33:07.229Z,47.00
2019-03-20T08:35:35.944Z,46.50
2019-03-20T08:38:04.680Z,45.40
2019-03-20T08:40:33.549Z,45.30
2019-03-20T08:43:14.303Z,47.40
2019-03-20T08:45:42.985Z,45.10
2019-03-20T08:48:11.749Z,46.30
2019-03-20T08:50:40.441Z,44.50
2019-03-20T08:53:09.094Z,45.30
2019-03-20T08:55:37.792Z,45.60
2019-03-20T09:00:53.019Z,43.50
2019-03-20T09:03:21.587Z,42.40
2019-03-20T09:05:50.221Z,42.10
2019-03-20T09:08:28.716Z,40.90
2019-03-20T09:10:49.104Z,39.00
2019-03-20T09:13:17.739Z,39.20
2019-03-20T09:15:46.260Z,40.30
2019-03-20T09:18:14.893Z,39.60
2019-03-20T09:20:43.438Z,41.90
2019-03-20T09:23:12.061Z,39.80
2019-03-20T09:25:40.605Z,41.50
2019-03-20T09:28:09.195Z,41.80
2019-03-20T09:30:37.777Z,40.00
2019-03-20T09:33:06.437Z,39.70
2019-03-20T09:35:34.989Z,40.10
2019-03-20T09:38:03.673Z,38.90
2019-03-20T09:40:32.285Z,39.50
2019-03-20T09:43:00.841Z,38.70
2019-03-20T09:45:29.403Z,39.40
2019-03-20T09:47:57.995Z,39.20
2019-03-20T09:50:29.872Z,39.40
2019-03-20T09:52:58.466Z,37.40
2019-03-20T09:55:27.013Z,38.40
2019-03-20T09:57:55.593Z,37.80
2019-03-20T10:00:28.536Z,38.90
2019-03-20T10:02:57.193Z,39.80
2019-03-20T10:05:25.830Z,40.70
2019-03-20T10:07:54.496Z,41.00
2019-03-20T10:10:25.222Z,41.10
2019-03-20T10:12:53.852Z,40.90
2019-03-20T10:15:29.374Z,42.10
2019-03-20T10:17:58.120Z,41.90
2019-03-20T10:20:26.808Z,41.70
2019-03-20T10:22:55.553Z,42.30
2019-03-20T10:25:24.310Z,40.10
2019-03-20T10:27:52.941Z,41.80
2019-03-20T10:30:28.885Z,39.20
2019-03-20T10:32:57.594Z,39.00
2019-03-20T10:35:26.285Z,38.00
2019-03-20T10:37:55.072Z,37.30
2019-03-20T10:40:24.798Z,38.80
2019-03-20T10:42:53.489Z,40.00
2019-03-20T10:45:22.225Z,40.80
2019-03-20T10:47:52.943Z,37.40
2019-03-20T10:50:26.230Z,38.00
2019-03-20T10:52:54.841Z,39.20
2019-03-20T10:55:23.467Z,38.90
2019-03-20T10:57:52.316Z,39.00
2019-03-20T11:00:25.033Z,38.60
2019-03-20T11:02:53.813Z,39.20
2019-03-20T11:05:22.737Z,39.00
2019-03-20T11:07:51.428Z,37.40
2019-03-20T11:10:24.725Z,37.00
2019-03-20T11:12:53.589Z,36.90
2019-03-20T11:15:23.120Z,34.00
2019-03-20T11:17:51.891Z,37.50
2019-03-20T11:20:22.005Z,37.00
2019-03-20T11:22:50.961Z,37.80
2019-03-20T11:25:27.674Z,36.50
2019-03-20T11:27:56.615Z,36.90
2019-03-20T11:30:32.569Z,37.70
2019-03-20T11:33:01.172Z,37.70
2019-03-20T11:35:29.872Z,36.10
2019-03-20T11:38:01.135Z,37.10
2019-03-20T11:40:35.161Z,36.40
2019-03-20T11:43:04.334Z,35.50
2019-03-20T11:45:33.257Z,33.80
2019-03-20T11:48:02.022Z,31.90
2019-03-20T11:50:38.862Z,33.30
2019-03-20T11:53:08.703Z,31.90
2019-03-20T11:55:37.954Z,31.50
2019-03-20T11:58:07.551Z,31.30
2019-03-20T12:00:36.407Z,28.90
2019-03-20T12:03:05.554Z,28.50
2019-03-20T12:05:37.641Z,31.00
2019-03-20T12:08:06.404Z,30.50
2019-03-20T12:10:35.336Z,32.00
2019-03-20T12:13:04.006Z,30.80
2019-03-20T12:15:32.775Z,31.90
2019-03-20T12:18:04.277Z,32.00
2019-03-20T12:20:33.117Z,31.80
2019-03-20T12:23:01.705Z,34.90
2019-03-20T12:25:38.102Z,31.90
2019-03-20T12:28:06.862Z,33.00
2019-03-20T12:30:39.632Z,32.00
2019-03-20T12:33:08.357Z,34.50
2019-03-20T12:35:42.520Z,38.30
2019-03-20T12:38:14.910Z,35.60
2019-03-20T12:40:42.667Z,35.30
2019-03-20T12:43:11.345Z,35.00
2019-03-20T12:45:40.459Z,35.50
2019-03-20T12:48:11.002Z,35.00
2019-03-20T12:50:39.693Z,35.30
2019-03-20T12:53:10.525Z,36.90
2019-03-20T12:55:39.157Z,35.90
2019-03-20T12:58:07.753Z,37.50
2019-03-20T13:00:36.489Z,36.20
2019-03-20T13:03:05.488Z,35.50
2019-03-20T13:05:34.084Z,36.10
2019-03-20T13:08:06.026Z,35.90
2019-03-20T13:10:32.993Z,36.10
2019-03-20T13:13:01.719Z,39.00
2019-03-20T13:15:30.453Z,38.30
2019-03-20T13:17:59.288Z,38.70
2019-03-20T13:20:28.104Z,38.50
2019-03-20T13:23:05.929Z,36.40
2019-03-20T13:25:34.632Z,36.70
2019-03-20T13:28:03.397Z,36.80
2019-03-20T13:30:43.727Z,35.40
2019-03-20T13:33:12.492Z,37.30
2019-03-20T13:35:41.174Z,36.90
2019-03-20T13:38:09.809Z,35.40
2019-03-20T13:40:38.443Z,35.20
2019-03-20T13:43:07.202Z,36.30
2019-03-20T13:45:35.952Z,35.90
2019-03-20T13:48:04.878Z,36.80
2019-03-20T13:50:33.508Z,38.20
2019-03-20T13:53:02.290Z,38.60
2019-03-20T13:55:30.913Z,37.40
2019-03-20T13:57:59.741Z,38.00
2019-03-20T14:00:28.817Z,37.60
2019-03-20T14:02:57.582Z,37.80
2019-03-20T14:05:26.345Z,39.00
2019-03-20T14:07:55.125Z,39.80
2019-03-20T14:10:28.086Z,38.90
2019-03-20T14:12:56.789Z,39.50
2019-03-20T14:15:25.465Z,40.10
2019-03-20T14:17:54.263Z,39.20
2019-03-20T14:20:24.984Z,39.60
2019-03-20T14:22:53.830Z,39.30
2019-03-20T14:25:22.877Z,38.40
2019-03-20T14:27:52.547Z,37.90
2019-03-20T14:30:23.360Z,38.00
2019-03-20T14:32:52.084Z,39.50
2019-03-20T14:35:21.061Z,39.40
2019-03-20T14:37:50.007Z,38.40
2019-03-20T14:40:31.665Z,39.10
2019-03-20T14:42:54.820Z,39.40
2019-03-20T14:45:23.576Z,39.10
2019-03-20T14:47:52.325Z,39.60
2019-03-20T14:50:28.009Z,40.40
2019-03-20T14:52:56.778Z,39.50
2019-03-20T14:55:26.759Z,40.30
2019-03-20T14:57:56.977Z,41.20
2019-03-20T15:00:31.977Z,39.80
2019-03-20T15:03:01.137Z,39.70
2019-03-20T15:05:29.898Z,40.10
2019-03-20T15:07:58.671Z,39.90
2019-03-20T15:10:30.032Z,40.30
2019-03-20T15:12:58.712Z,39.80
2019-03-20T15:15:48.680Z,39.20
2019-03-20T15:18:17.317Z,39.10
2019-03-20T15:20:46.065Z,39.30
2019-03-20T15:23:14.761Z,38.20
2019-03-20T15:25:43.517Z,37.50
2019-03-20T15:28:12.238Z,36.60
2019-03-20T15:30:40.915Z,35.80
2019-03-20T15:33:09.532Z,35.50
2019-03-20T15:35:38.296Z,34.60
2019-03-20T15:38:07.056Z,36.20
2019-03-20T15:40:35.769Z,37.70
2019-03-20T15:43:04.531Z,37.90
2019-03-20T15:45:33.300Z,38.50
2019-03-20T15:48:01.997Z,39.50
2019-03-20T15:50:30.672Z,40.10
2019-03-20T15:52:59.377Z,39.80
2019-03-20T15:55:39.088Z,39.00
2019-03-20T15:58:07.787Z,39.70
2019-03-20T16:00:36.456Z,39.60
2019-03-20T16:03:23.035Z,39.80
2019-03-20T16:05:51.659Z,39.80
2019-03-20T16:08:20.707Z,39.90
2019-03-20T16:10:49.401Z,40.50
2019-03-20T16:13:18.094Z,41.10
2019-03-20T16:15:46.863Z,41.80
2019-03-20T16:18:15.496Z,41.00
2019-03-20T16:20:44.098Z,41.70
2019-03-20T16:23:12.828Z,41.80
2019-03-20T16:25:41.421Z,41.30
2019-03-20T16:28:10.058Z,41.60
2019-03-20T16:30:38.668Z,42.10
2019-03-20T16:33:07.304Z,42.60
2019-03-20T16:35:35.978Z,42.60
2019-03-20T16:38:06.940Z,41.40
2019-03-20T16:40:36.328Z,43.10
2019-03-20T16:43:05.625Z,42.20
2019-03-20T16:45:35.773Z,42.10
2019-03-20T16:48:06.153Z,42.00
2019-03-20T16:50:34.981Z,42.70
2019-03-20T16:53:03.744Z,43.00
2019-03-20T16:55:32.424Z,43.50
2019-03-20T16:58:01.212Z,45.00
2019-03-20T17:00:31.356Z,44.60
2019-03-20T17:03:00.205Z,45.00
2019-03-20T17:05:29.760Z,45.40
2019-03-20T17:07:58.570Z,46.10
2019-03-20T17:10:38.231Z,46.60
2019-03-20T17:13:07.001Z,46.80
2019-03-20T17:15:39.481Z,46.90
2019-03-20T17:18:08.962Z,47.40
2019-03-20T17:20:37.694Z,47.30
2019-03-20T17:23:07.773Z,47.50
2019-03-20T17:25:36.803Z,48.20
2019-03-20T17:28:06.560Z,48.50
2019-03-20T17:30:37.420Z,49.20
2019-03-20T17:33:07.180Z,49.40
2019-03-20T17:35:36.020Z,49.70
2019-03-20T17:38:05.276Z,50.30
2019-03-20T17:40:33.963Z,50.90
2019-03-20T17:43:02.725Z,51.60
2019-03-20T17:45:32.941Z,52.50
2019-03-20T17:48:01.790Z,52.80
2019-03-20T17:50:34.121Z,53.20
2019-03-20T17:53:02.882Z,54.40
2019-03-20T17:55:50.828Z,55.20
2019-03-20T17:58:19.522Z,57.30
2019-03-20T18:00:49.910Z,57.90
2019-03-20T18:03:18.560Z,60.60
2019-03-20T18:05:47.290Z,63.40
2019-03-20T18:08:15.912Z,65.20
2019-03-20T18:10:44.577Z,67.50
2019-03-20T18:13:13.279Z,71.10
2019-03-20T18:15:41.963Z,74.60
2019-03-20T18:18:10.672Z,77.30
2019-03-20T18:20:39.343Z,78.70
2019-03-20T18:23:08.437Z,78.80
2019-03-20T18:25:37.178Z,82.40
2019-03-20T18:28:05.945Z,83.50
2019-03-20T18:30:37.018Z,82.40
2019-03-20T18:33:05.870Z,84.80
2019-03-20T18:35:34.607Z,85.90
2019-03-20T18:38:03.577Z,88.20
2019-03-20T18:40:32.255Z,90.30
2019-03-20T18:43:00.894Z,91.00
2019-03-20T18:45:29.605Z,91.00
2019-03-20T18:47:58.265Z,91.30
2019-03-20T18:50:27.008Z,91.40
2019-03-20T18:52:55.625Z,92.30
2019-03-20T18:55:24.357Z,92.10
2019-03-20T18:57:53.065Z,92.80
2019-03-20T19:00:29.788Z,93.80
2019-03-20T19:03:16.291Z,94.00
2019-03-20T19:05:54.107Z,94.50
2019-03-20T19:08:22.701Z,94.10
2019-03-20T19:10:51.413Z,94.70
2019-03-20T19:13:19.997Z,93.40
2019-03-20T19:15:48.649Z,95.00
2019-03-20T19:18:17.213Z,95.80
2019-03-20T19:20:45.873Z,96.00
2019-03-20T19:23:14.665Z,96.10
2019-03-20T19:25:43.418Z,96.30
2019-03-20T19:28:12.114Z,96.70
2019-03-20T19:30:40.820Z,96.90
2019-03-20T19:33:09.446Z,96.80
2019-03-20T19:35:38.251Z,97.20
2019-03-20T19:38:06.875Z,95.80
2019-03-20T19:40:35.641Z,97.30
2019-03-20T19:43:04.557Z,98.30
2019-03-20T19:45:33.217Z,98.70
2019-03-20T19:48:01.868Z,99.40
2019-03-20T19:50:30.520Z,99.40
2019-03-20T19:52:59.190Z,99.40
2019-03-20T19:55:31.408Z,99.60
2019-03-20T19:58:00.076Z,99.80
2019-03-20T20:00:29.129Z,99.90
2019-03-20T20:02:59.326Z,99.90
2019-03-20T20:05:28.194Z,99.90
2019-03-20T20:07:56.989Z,99.90
2019-03-20T20:10:25.576Z,99.90
2019-03-20T20:12:54.150Z,99.90
2019-03-20T20:15:33.944Z,99.90
2019-03-20T20:18:02.704Z,99.90
2019-03-20T20:20:33.905Z,99.90
2019-03-20T20:23:04.381Z,99.90
2019-03-20T20:25:32.733Z,99.90
2019-03-20T20:28:01.482Z,99.90
2019-03-20T20:30:30.197Z,99.90
2019-03-20T20:32:58.905Z,99.90
2019-03-20T20:35:27.640Z,99.90
2019-03-20T20:37:56.202Z,99.90
2019-03-20T20:40:44.154Z,99.90
2019-03-20T20:43:12.810Z,99.90
2019-03-20T20:45:41.374Z,99.90
2019-03-20T20:48:10.034Z,99.90
2019-03-20T20:50:38.733Z,99.90
2019-03-20T20:53:08.851Z,99.90
2019-03-20T20:55:37.658Z,99.90
2019-03-20T20:58:06.438Z,99.90
2019-03-20T21:00:36.303Z,99.90
2019-03-20T21:03:04.906Z,99.90
2019-03-20T21:05:33.553Z,99.90
2019-03-20T21:08:02.152Z,99.90
2019-03-20T21:10:30.918Z,99.90
2019-03-20T21:12:59.630Z,99.90
2019-03-20T21:15:42.184Z,99.90
2019-03-20T21:18:16.602Z,99.90
2019-03-20T21:20:46.426Z,99.90
2019-03-20T21:23:40.490Z,99.90
2019-03-20T21:26:23.834Z,99.90
2019-03-20T21:29:12.043Z,99.90
2019-03-20T21:32:00.336Z,99.90
2019-03-20T21:34:51.598Z,99.90
2019-03-20T21:37:58.110Z,99.90
2019-03-20T21:40:26.698Z,99.90
2019-03-20T21:43:17.292Z,99.90
2019-03-20T21:46:13.266Z,99.90
2019-03-20T21:48:42.187Z,99.90
2019-03-20T21:51:14.812Z,99.90
2019-03-20T21:53:55.106Z,99.90
2019-03-20T21:56:35.750Z,99.90
2019-03-20T21:59:16.557Z,99.90
2019-03-20T22:02:13.575Z,99.90
2019-03-20T22:04:42.422Z,99.90
2019-03-20T22:07:12.076Z,99.90
2019-03-20T22:09:52.481Z,99.90
2019-03-20T22:12:36.229Z,99.90
2019-03-20T22:15:10.476Z,99.90
2019-03-20T22:18:15.282Z,99.90
2019-03-20T22:20:49.793Z,99.90
2019-03-20T22:23:36.442Z,99.90
2019-03-20T22:26:10.767Z,99.90
2019-03-20T22:29:11.328Z,99.90
2019-03-20T22:31:45.589Z,99.90
2019-03-20T22:34:26.586Z,99.90
2019-03-20T22:36:55.181Z,99.90
2019-03-20T22:39:54.301Z,99.90
2019-03-20T22:42:34.516Z,99.90
2019-03-20T22:45:11.866Z,99.90
2019-03-20T22:47:58.341Z,99.90
2019-03-20T22:50:46.594Z,99.90
2019-03-20T22:53:36.223Z,99.90
2019-03-20T22:56:10.561Z,99.90
2019-03-20T22:58:46.444Z,99.90
2019-03-20T23:01:20.869Z,99.90
2019-03-20T23:03:52.556Z,99.90
2019-03-20T23:06:21.125Z,99.90
2019-03-20T23:08:49.706Z,99.90
2019-03-20T23:11:18.431Z,99.90
2019-03-20T23:13:47.176Z,99.90
2019-03-20T23:16:18.877Z,99.90
2019-03-20T23:18:47.477Z,99.90
2019-03-20T23:21:16.113Z,99.90
2019-03-20T23:23:44.777Z,99.90
2019-03-20T23:26:13.348Z,99.90
2019-03-20T23:28:42.231Z,99.90
2019-03-20T23:31:10.793Z,99.90
2019-03-20T23:33:39.478Z,99.90
2019-03-20T23:36:08.133Z,99.90
2019-03-20T23:38:36.716Z,99.90
2019-03-20T23:41:05.747Z,99.90
2019-03-20T23:43:34.492Z,99.90
2019-03-20T23:46:03.894Z,99.90
2019-03-20T23:48:38.345Z,99.90
2019-03-20T23:51:29.496Z,99.90
2019-03-20T23:53:58.933Z,99.90
2019-03-20T23:56:30.741Z,99.90
2019-03-20T23:58:59.345Z,99.90
